sensor_id;sensor_type;location;lat;lon;timestamp;pressure;altitude;pressure_sealevel;temperature;humidity
71964;BME280;59834;52.124;5.422;2023-03-01T00:00:40;103303.34;;;-1.12;80.05
71964;BME280;59834;52.124;5.422;2023-03-01T00:03:07;103298.22;;;-1.12;80.70
71964;BME280;59834;52.124;5.422;2023-03-01T00:05:34;103298.13;;;-1.15;81.56
71964;BME280;59834;52.124;5.422;2023-03-01T00:08:00;103293.72;;;-1.21;81.19
71964;BME280;59834;52.124;5.422;2023-03-01T00:10:27;103291.03;;;-1.25;81.55
71964;BME280;59834;52.124;5.422;2023-03-01T00:12:53;103296.09;;;-1.28;81.15
71964;BME280;59834;52.124;5.422;2023-03-01T00:15:21;103291.78;;;-1.29;82.17
71964;BME280;59834;52.124;5.422;2023-03-01T00:17:47;103293.44;;;-1.31;82.51
71964;BME280;59834;52.124;5.422;2023-03-01T00:20:14;103302.81;;;-1.33;82.71
71964;BME280;59834;52.124;5.422;2023-03-01T00:22:40;103301.03;;;-1.36;82.02
71964;BME280;59834;52.124;5.422;2023-03-01T00:25:07;103293.44;;;-1.31;82.58
71964;BME280;59834;52.124;5.422;2023-03-01T00:27:33;103290.00;;;-1.32;82.63
71964;BME280;59834;52.124;5.422;2023-03-01T00:30:00;103284.78;;;-1.35;82.66
71964;BME280;59834;52.124;5.422;2023-03-01T00:32:26;103286.53;;;-1.34;83.52
71964;BME280;59834;52.124;5.422;2023-03-01T00:34:53;103278.00;;;-1.33;83.36
71964;BME280;59834;52.124;5.422;2023-03-01T00:37:23;103283.09;;;-1.34;82.96
71964;BME280;59834;52.124;5.422;2023-03-01T00:39:50;103286.50;;;-1.35;82.35
71964;BME280;59834;52.124;5.422;2023-03-01T00:42:16;103284.88;;;-1.32;83.00
71964;BME280;59834;52.124;5.422;2023-03-01T00:44:43;103284.78;;;-1.35;83.87
71964;BME280;59834;52.124;5.422;2023-03-01T00:47:10;103288.16;;;-1.37;82.82
71964;BME280;59834;52.124;5.422;2023-03-01T00:49:37;103290.84;;;-1.33;83.07
71964;BME280;59834;52.124;5.422;2023-03-01T00:52:03;103287.41;;;-1.33;82.87
71964;BME280;59834;52.124;5.422;2023-03-01T00:54:30;103284.75;;;-1.36;83.68
71964;BME280;59834;52.124;5.422;2023-03-01T00:56:56;103278.63;;;-1.42;84.07
71964;BME280;59834;52.124;5.422;2023-03-01T00:59:23;103277.69;;;-1.45;84.65
71964;BME280;59834;52.124;5.422;2023-03-01T01:01:49;103275.84;;;-1.51;84.76
71964;BME280;59834;52.124;5.422;2023-03-01T01:04:16;103274.94;;;-1.51;83.85
71964;BME280;59834;52.124;5.422;2023-03-01T01:06:46;103267.13;;;-1.56;85.15
71964;BME280;59834;52.124;5.422;2023-03-01T01:09:15;103268.78;;;-1.58;85.32
71964;BME280;59834;52.124;5.422;2023-03-01T01:11:47;103262.00;;;-1.56;85.12
71964;BME280;59834;52.124;5.422;2023-03-01T01:14:14;103266.22;;;-1.58;85.59
71964;BME280;59834;52.124;5.422;2023-03-01T01:16:41;103255.91;;;-1.61;85.18
71964;BME280;59834;52.124;5.422;2023-03-01T01:19:10;103252.41;;;-1.63;86.33
71964;BME280;59834;52.124;5.422;2023-03-01T01:21:36;103256.69;;;-1.62;86.21
71964;BME280;59834;52.124;5.422;2023-03-01T01:24:04;103254.06;;;-1.65;86.55
71964;BME280;59834;52.124;5.422;2023-03-01T01:26:32;103249.84;;;-1.63;86.00
71964;BME280;59834;52.124;5.422;2023-03-01T01:29:01;103250.69;;;-1.64;86.68
71964;BME280;59834;52.124;5.422;2023-03-01T01:31:29;103241.97;;;-1.69;87.28
71964;BME280;59834;52.124;5.422;2023-03-01T01:33:56;103243.69;;;-1.68;86.71
71964;BME280;59834;52.124;5.422;2023-03-01T01:36:23;103238.47;;;-1.71;88.07
71964;BME280;59834;52.124;5.422;2023-03-01T01:38:50;103234.94;;;-1.76;87.52
71964;BME280;59834;52.124;5.422;2023-03-01T01:41:18;103244.38;;;-1.75;88.51
71964;BME280;59834;52.124;5.422;2023-03-01T01:43:48;103244.28;;;-1.78;88.03
71964;BME280;59834;52.124;5.422;2023-03-01T01:46:32;103245.09;;;-1.81;87.82
71964;BME280;59834;52.124;5.422;2023-03-01T01:49:02;103236.47;;;-1.84;88.08
71964;BME280;59834;52.124;5.422;2023-03-01T01:51:35;103235.56;;;-1.85;88.47
71964;BME280;59834;52.124;5.422;2023-03-01T01:54:16;103236.38;;;-1.87;89.17
71964;BME280;59834;52.124;5.422;2023-03-01T01:56:52;103238.88;;;-1.89;89.09
71964;BME280;59834;52.124;5.422;2023-03-01T01:59:23;103237.94;;;-1.93;89.70
71964;BME280;59834;52.124;5.422;2023-03-01T02:02:09;103227.59;;;-1.96;89.83
71964;BME280;59834;52.124;5.422;2023-03-01T02:04:41;103225.84;;;-1.97;89.56
71964;BME280;59834;52.124;5.422;2023-03-01T02:07:22;103218.94;;;-1.99;89.86
71964;BME280;59834;52.124;5.422;2023-03-01T02:09:52;103229.19;;;-2.01;89.79
71964;BME280;59834;52.124;5.422;2023-03-01T02:12:44;103225.72;;;-2.01;90.38
71964;BME280;59834;52.124;5.422;2023-03-01T02:15:12;103220.56;;;-2.03;90.25
71964;BME280;59834;52.124;5.422;2023-03-01T02:18:09;103214.59;;;-2.02;90.18
71964;BME280;59834;52.124;5.422;2023-03-01T02:25:12;103218.91;;;-2.01;91.28
71964;BME280;59834;52.124;5.422;2023-03-01T02:28:02;103216.13;;;-2.08;90.67
71964;BME280;59834;52.124;5.422;2023-03-01T02:30:48;103216.09;;;-2.10;91.57
71964;BME280;59834;52.124;5.422;2023-03-01T02:33:39;103218.56;;;-2.13;91.57
71964;BME280;59834;52.124;5.422;2023-03-01T02:36:14;103208.31;;;-2.13;91.66
71964;BME280;59834;52.124;5.422;2023-03-01T02:42:02;103196.09;;;-2.22;91.43
71964;BME280;59834;52.124;5.422;2023-03-01T02:55:58;103194.91;;;-2.34;92.52
71964;BME280;59834;52.124;5.422;2023-03-01T02:58:51;103194.91;;;-2.34;91.87
71964;BME280;59834;52.124;5.422;2023-03-01T03:07:38;103193.81;;;-2.43;92.44
71964;BME280;59834;52.124;5.422;2023-03-01T03:10:10;103184.41;;;-2.42;92.79
71964;BME280;59834;52.124;5.422;2023-03-01T03:12:39;103184.31;;;-2.45;92.55
71964;BME280;59834;52.124;5.422;2023-03-01T03:15:08;103187.69;;;-2.48;92.86
71964;BME280;59834;52.124;5.422;2023-03-01T03:17:42;103187.72;;;-2.46;92.55
71964;BME280;59834;52.124;5.422;2023-03-01T03:20:15;103191.81;;;-2.53;92.38
71964;BME280;59834;52.124;5.422;2023-03-01T03:25:52;103181.03;;;-2.71;93.06
71964;BME280;59834;52.124;5.422;2023-03-01T03:28:22;103174.06;;;-2.75;93.66
71964;BME280;59834;52.124;5.422;2023-03-01T03:30:52;103169.66;;;-2.81;93.74
71964;BME280;59834;52.124;5.422;2023-03-01T03:33:45;103185.78;;;-2.83;94.05
71964;BME280;59834;52.124;5.422;2023-03-01T03:36:20;103175.34;;;-2.90;93.27
71964;BME280;59834;52.124;5.422;2023-03-01T03:38:49;103180.34;;;-2.94;93.66
71964;BME280;59834;52.124;5.422;2023-03-01T03:41:17;103174.19;;;-3.01;93.35
71964;BME280;59834;52.124;5.422;2023-03-01T03:51:16;103177.50;;;-3.03;93.54
71964;BME280;59834;52.124;5.422;2023-03-01T04:01:53;103161.00;;;-3.13;93.48
71964;BME280;59834;52.124;5.422;2023-03-01T04:04:20;103172.06;;;-3.14;94.55
71964;BME280;59834;52.124;5.422;2023-03-01T04:06:48;103171.97;;;-3.17;94.15
71964;BME280;59834;52.124;5.422;2023-03-01T04:12:33;103170.06;;;-3.24;94.58
71964;BME280;59834;52.124;5.422;2023-03-01T04:19:25;103172.50;;;-3.27;94.31
71964;BME280;59834;52.124;5.422;2023-03-01T04:32:21;103182.38;;;-3.40;94.14
71964;BME280;59834;52.124;5.422;2023-03-01T04:39:13;103172.94;;;-3.41;93.92
71964;BME280;59834;52.124;5.422;2023-03-01T04:41:49;103171.91;;;-3.46;93.77
71964;BME280;59834;52.124;5.422;2023-03-01T04:44:16;103168.34;;;-3.51;94.33
71964;BME280;59834;52.124;5.422;2023-03-01T04:46:49;103166.63;;;-3.52;94.41
71964;BME280;59834;52.124;5.422;2023-03-01T04:49:19;103164.00;;;-3.53;94.28
71964;BME280;59834;52.124;5.422;2023-03-01T04:51:46;103165.72;;;-3.52;94.64
71964;BME280;59834;52.124;5.422;2023-03-01T04:58:08;103150.19;;;-3.59;94.93
71964;BME280;59834;52.124;5.422;2023-03-01T05:11:56;103135.31;;;-3.70;94.92
71964;BME280;59834;52.124;5.422;2023-03-01T05:14:22;103131.81;;;-3.72;95.09
71964;BME280;59834;52.124;5.422;2023-03-01T05:16:49;103127.41;;;-3.78;95.38
71964;BME280;59834;52.124;5.422;2023-03-01T05:19:16;103123.91;;;-3.80;95.36
71964;BME280;59834;52.124;5.422;2023-03-01T05:21:43;103117.06;;;-3.81;95.20
71964;BME280;59834;52.124;5.422;2023-03-01T05:24:29;103125.59;;;-3.81;95.80
71964;BME280;59834;52.124;5.422;2023-03-01T05:26:57;103109.31;;;-3.83;95.34
71964;BME280;59834;52.124;5.422;2023-03-01T05:29:24;103114.38;;;-3.84;96.27
71964;BME280;59834;52.124;5.422;2023-03-01T05:31:56;103111.78;;;-3.86;95.80
71964;BME280;59834;52.124;5.422;2023-03-01T05:34:29;103108.31;;;-3.88;95.56
71964;BME280;59834;52.124;5.422;2023-03-01T05:36:56;103100.63;;;-3.88;95.62
71964;BME280;59834;52.124;5.422;2023-03-01T05:39:24;103101.28;;;-3.93;95.71
71964;BME280;59834;52.124;5.422;2023-03-01T05:41:56;103104.72;;;-3.93;96.01
71964;BME280;59834;52.124;5.422;2023-03-01T05:44:24;103088.47;;;-3.95;96.11
71964;BME280;59834;52.124;5.422;2023-03-01T05:46:51;103090.84;;;-3.99;95.23
71964;BME280;59834;52.124;5.422;2023-03-01T05:49:18;103089.00;;;-4.05;95.86
71964;BME280;59834;52.124;5.422;2023-03-01T05:51:49;103088.03;;;-4.09;94.83
71964;BME280;59834;52.124;5.422;2023-03-01T05:54:17;103085.34;;;-4.12;94.93
71964;BME280;59834;52.124;5.422;2023-03-01T05:56:44;103089.78;;;-4.06;95.31
71964;BME280;59834;52.124;5.422;2023-03-01T05:59:11;103086.53;;;-4.02;95.34
71964;BME280;59834;52.124;5.422;2023-03-01T06:01:38;103084.78;;;-4.03;95.26
71964;BME280;59834;52.124;5.422;2023-03-01T06:04:04;103084.56;;;-4.09;95.59
71964;BME280;59834;52.124;5.422;2023-03-01T06:06:35;103085.47;;;-4.09;95.77
71964;BME280;59834;52.124;5.422;2023-03-01T06:09:05;103083.56;;;-4.14;95.36
71964;BME280;59834;52.124;5.422;2023-03-01T06:11:34;103086.88;;;-4.17;95.05
71964;BME280;59834;52.124;5.422;2023-03-01T06:14:01;103086.00;;;-4.17;95.51
71964;BME280;59834;52.124;5.422;2023-03-01T06:16:28;103085.56;;;-4.06;95.73
71964;BME280;59834;52.124;5.422;2023-03-01T06:18:55;103085.63;;;-4.03;95.92
71964;BME280;59834;52.124;5.422;2023-03-01T06:21:22;103093.16;;;-4.07;95.49
71964;BME280;59834;52.124;5.422;2023-03-01T06:23:48;103089.69;;;-4.09;95.71
71964;BME280;59834;52.124;5.422;2023-03-01T06:26:15;103089.75;;;-4.08;95.78
71964;BME280;59834;52.124;5.422;2023-03-01T06:28:41;103096.44;;;-4.11;95.17
71964;BME280;59834;52.124;5.422;2023-03-01T06:31:08;103085.34;;;-4.12;95.34
71964;BME280;59834;52.124;5.422;2023-03-01T06:33:35;103088.78;;;-4.11;95.70
71964;BME280;59834;52.124;5.422;2023-03-01T06:36:03;103094.72;;;-4.12;95.46
71964;BME280;59834;52.124;5.422;2023-03-01T06:38:30;103100.84;;;-4.07;94.54
71964;BME280;59834;52.124;5.422;2023-03-01T06:40:56;103097.56;;;-4.03;95.45
71964;BME280;59834;52.124;5.422;2023-03-01T06:43:23;103101.09;;;-3.99;94.81
71964;BME280;59834;52.124;5.422;2023-03-01T06:45:50;103095.09;;;-4.00;94.64
71964;BME280;59834;52.124;5.422;2023-03-01T06:48:17;103090.84;;;-3.99;95.03
71964;BME280;59834;52.124;5.422;2023-03-01T06:50:43;103092.63;;;-3.98;94.19
71964;BME280;59834;52.124;5.422;2023-03-01T06:53:10;103095.41;;;-3.91;94.46
71964;BME280;59834;52.124;5.422;2023-03-01T06:55:36;103091.28;;;-3.86;94.68
71964;BME280;59834;52.124;5.422;2023-03-01T06:58:03;103093.97;;;-3.83;94.95
71964;BME280;59834;52.124;5.422;2023-03-01T07:00:30;103088.16;;;-3.78;95.28
71964;BME280;59834;52.124;5.422;2023-03-01T07:03:01;103084.03;;;-3.73;94.62
71964;BME280;59834;52.124;5.422;2023-03-01T07:05:29;103084.94;;;-3.71;95.45
71964;BME280;59834;52.124;5.422;2023-03-01T07:07:56;103084.22;;;-3.67;95.55
71964;BME280;59834;52.124;5.422;2023-03-01T07:10:23;103089.53;;;-3.61;94.87
71964;BME280;59834;52.124;5.422;2023-03-01T07:12:50;103088.94;;;-3.52;95.59
71964;BME280;59834;52.124;5.422;2023-03-01T07:15:17;103085.47;;;-3.54;95.05
71964;BME280;59834;52.124;5.422;2023-03-01T07:17:43;103093.38;;;-3.47;94.74
71964;BME280;59834;52.124;5.422;2023-03-01T07:20:11;103086.03;;;-3.36;94.65
71964;BME280;59834;52.124;5.422;2023-03-01T07:22:40;103090.47;;;-3.30;95.14
71964;BME280;59834;52.124;5.422;2023-03-01T07:25:09;103089.91;;;-3.20;94.77
71964;BME280;59834;52.124;5.422;2023-03-01T07:27:36;103096.13;;;-3.12;95.09
71964;BME280;59834;52.124;5.422;2023-03-01T07:30:03;103098.06;;;-3.05;94.99
71964;BME280;59834;52.124;5.422;2023-03-01T07:32:30;103094.94;;;-2.95;95.08
71964;BME280;59834;52.124;5.422;2023-03-01T07:34:56;103098.56;;;-2.87;94.62
71964;BME280;59834;52.124;5.422;2023-03-01T07:37:23;103093.53;;;-2.83;95.14
71964;BME280;59834;52.124;5.422;2023-03-01T07:39:49;103103.91;;;-2.79;95.09
71964;BME280;59834;52.124;5.422;2023-03-01T07:42:15;103100.81;;;-2.67;93.86
71964;BME280;59834;52.124;5.422;2023-03-01T07:44:43;103104.44;;;-2.59;94.53
71964;BME280;59834;52.124;5.422;2023-03-01T07:47:11;103108.19;;;-2.48;94.71
71964;BME280;59834;52.124;5.422;2023-03-01T07:49:38;103103.38;;;-2.35;93.44
71964;BME280;59834;52.124;5.422;2023-03-01T07:52:06;103107.03;;;-2.27;94.25
71964;BME280;59834;52.124;5.422;2023-03-01T07:54:33;103105.59;;;-2.16;93.54
71964;BME280;59834;52.124;5.422;2023-03-01T07:56:59;103102.34;;;-2.09;93.46
71964;BME280;59834;52.124;5.422;2023-03-01T07:59:28;103106.88;;;-1.99;93.33
71964;BME280;59834;52.124;5.422;2023-03-01T08:01:56;103110.53;;;-1.89;92.14
71964;BME280;59834;52.124;5.422;2023-03-01T08:04:24;103100.50;;;-1.80;91.68
71964;BME280;59834;52.124;5.422;2023-03-01T08:06:54;103106.72;;;-1.70;91.45
71964;BME280;59834;52.124;5.422;2023-03-01T08:09:22;103103.53;;;-1.60;90.99
71964;BME280;59834;52.124;5.422;2023-03-01T08:11:48;103102.06;;;-1.49;89.79
71964;BME280;59834;52.124;5.422;2023-03-01T08:14:15;103101.50;;;-1.37;89.60
71964;BME280;59834;52.124;5.422;2023-03-01T08:16:41;103100.88;;;-1.27;88.34
71964;BME280;59834;52.124;5.422;2023-03-01T08:19:10;103096.00;;;-1.13;87.46
71964;BME280;59834;52.124;5.422;2023-03-01T08:21:37;103099.72;;;-0.99;86.52
71964;BME280;59834;52.124;5.422;2023-03-01T08:24:05;103092.28;;;-0.86;86.24
71964;BME280;59834;52.124;5.422;2023-03-01T08:26:33;103096.75;;;-0.76;85.51
71964;BME280;59834;52.124;5.422;2023-03-01T08:29:00;103102.09;;;-0.67;85.62
71964;BME280;59834;52.124;5.422;2023-03-01T08:31:35;103085.91;;;-0.61;85.34
71964;BME280;59834;52.124;5.422;2023-03-01T08:34:06;103089.50;;;-0.52;84.33
71964;BME280;59834;52.124;5.422;2023-03-01T08:36:39;103087.06;;;-0.45;84.26
71964;BME280;59834;52.124;5.422;2023-03-01T08:39:07;103093.13;;;-0.40;82.77
71964;BME280;59834;52.124;5.422;2023-03-01T08:41:34;103092.50;;;-0.29;82.31
71964;BME280;59834;52.124;5.422;2023-03-01T08:44:00;103082.28;;;-0.24;83.22
71964;BME280;59834;52.124;5.422;2023-03-01T08:46:28;103077.25;;;-0.18;82.15
71964;BME280;59834;52.124;5.422;2023-03-01T08:48:55;103078.38;;;-0.02;82.21
71964;BME280;59834;52.124;5.422;2023-03-01T08:51:22;103075.97;;;0.09;81.22
71964;BME280;59834;52.124;5.422;2023-03-01T08:53:49;103066.66;;;0.17;81.14
71964;BME280;59834;52.124;5.422;2023-03-01T08:56:17;103066.78;;;0.26;80.13
71964;BME280;59834;52.124;5.422;2023-03-01T08:58:46;103069.56;;;0.40;80.27
71964;BME280;59834;52.124;5.422;2023-03-01T09:01:16;103064.53;;;0.49;79.45
71964;BME280;59834;52.124;5.422;2023-03-01T09:03:43;103063.84;;;0.61;80.02
71964;BME280;59834;52.124;5.422;2023-03-01T09:06:10;103061.38;;;0.68;79.03
71964;BME280;59834;52.124;5.422;2023-03-01T09:08:40;103050.38;;;0.83;78.64
71964;BME280;59834;52.124;5.422;2023-03-01T09:11:10;103047.91;;;0.92;77.49
71964;BME280;59834;52.124;5.422;2023-03-01T09:13:36;103044.56;;;0.98;77.50
71964;BME280;59834;52.124;5.422;2023-03-01T09:16:05;103045.41;;;0.99;77.47
71964;BME280;59834;52.124;5.422;2023-03-01T09:18:33;103039.56;;;1.12;77.35
71964;BME280;59834;52.124;5.422;2023-03-01T09:21:04;103041.38;;;1.22;77.75
71964;BME280;59834;52.124;5.422;2023-03-01T09:23:41;103034.56;;;1.30;77.57
71964;BME280;59834;52.124;5.422;2023-03-01T09:26:10;103036.38;;;1.39;76.39
71964;BME280;59834;52.124;5.422;2023-03-01T09:28:38;103022.69;;;1.45;75.38
71964;BME280;59834;52.124;5.422;2023-03-01T09:31:04;103017.59;;;1.54;74.38
71964;BME280;59834;52.124;5.422;2023-03-01T09:33:32;103023.69;;;1.59;73.78
71964;BME280;59834;52.124;5.422;2023-03-01T09:36:02;103016.81;;;1.64;74.05
71964;BME280;59834;52.124;5.422;2023-03-01T09:38:30;103007.50;;;1.78;73.28
71964;BME280;59834;52.124;5.422;2023-03-01T09:40:57;103008.44;;;1.89;73.21
71964;BME280;59834;52.124;5.422;2023-03-01T09:45:54;103005.91;;;2.00;72.15
71964;BME280;59834;52.124;5.422;2023-03-01T09:48:26;102999.13;;;2.11;72.10
71964;BME280;59834;52.124;5.422;2023-03-01T09:50:53;103008.63;;;2.20;71.82
71964;BME280;59834;52.124;5.422;2023-03-01T09:53:22;102999.22;;;2.34;72.16
71964;BME280;59834;52.124;5.422;2023-03-01T09:56:22;102999.31;;;2.45;71.55
71964;BME280;59834;52.124;5.422;2023-03-01T10:09:40;103003.75;;;2.83;67.28
71964;BME280;59834;52.124;5.422;2023-03-01T10:12:14;103008.97;;;2.89;65.96
71964;BME280;59834;52.124;5.422;2023-03-01T10:19:53;103000.34;;;2.98;65.63
71964;BME280;59834;52.124;5.422;2023-03-01T10:22:30;102999.50;;;3.05;64.78
71964;BME280;59834;52.124;5.422;2023-03-01T10:24:59;102996.91;;;3.00;64.36
71964;BME280;59834;52.124;5.422;2023-03-01T10:27:52;102988.31;;;3.09;65.60
71964;BME280;59834;52.124;5.422;2023-03-01T10:33:15;102993.50;;;3.21;64.50
71964;BME280;59834;52.124;5.422;2023-03-01T10:35:43;102986.63;;;3.29;64.08
71964;BME280;59834;52.124;5.422;2023-03-01T10:38:12;102990.94;;;3.34;62.68
71964;BME280;59834;52.124;5.422;2023-03-01T10:40:57;102977.13;;;3.41;63.96
71964;BME280;59834;52.124;5.422;2023-03-01T10:43:25;102974.56;;;3.59;64.10
71964;BME280;59834;52.124;5.422;2023-03-01T10:45:53;102966.78;;;3.68;61.16
71964;BME280;59834;52.124;5.422;2023-03-01T10:48:22;102959.88;;;3.70;58.82
71964;BME280;59834;52.124;5.422;2023-03-01T10:53:28;102959.00;;;3.71;58.70
71964;BME280;59834;52.124;5.422;2023-03-01T10:58:23;102943.47;;;3.76;57.54
71964;BME280;59834;52.124;5.422;2023-03-01T11:00:53;102938.28;;;3.84;57.41
71964;BME280;59834;52.124;5.422;2023-03-01T11:03:26;102931.34;;;3.90;57.43
71964;BME280;59834;52.124;5.422;2023-03-01T11:08:37;102927.84;;;4.05;57.31
71964;BME280;59834;52.124;5.422;2023-03-01T11:11:33;102927.84;;;4.07;57.85
71964;BME280;59834;52.124;5.422;2023-03-01T11:14:04;102920.06;;;4.13;56.56
71964;BME280;59834;52.124;5.422;2023-03-01T11:20:00;102916.53;;;4.28;57.53
71964;BME280;59834;52.124;5.422;2023-03-01T11:22:28;102900.13;;;4.27;56.62
71964;BME280;59834;52.124;5.422;2023-03-01T11:24:56;102908.81;;;4.20;56.99
71964;BME280;59834;52.124;5.422;2023-03-01T11:27:41;102901.84;;;4.31;56.53
71964;BME280;59834;52.124;5.422;2023-03-01T11:30:19;102899.19;;;4.39;54.98
71964;BME280;59834;52.124;5.422;2023-03-01T11:32:56;102900.88;;;4.52;53.75
71964;BME280;59834;52.124;5.422;2023-03-01T11:35:28;102893.94;;;4.54;54.07
71964;BME280;59834;52.124;5.422;2023-03-01T11:40:33;102899.13;;;4.57;54.88
71964;BME280;59834;52.124;5.422;2023-03-01T11:43:24;102900.84;;;4.58;55.43
71964;BME280;59834;52.124;5.422;2023-03-01T11:49:37;102892.88;;;4.86;53.51
71964;BME280;59834;52.124;5.422;2023-03-01T11:55:29;102890.28;;;4.86;54.27
71964;BME280;59834;52.124;5.422;2023-03-01T11:58:08;102884.19;;;4.94;52.60
71964;BME280;59834;52.124;5.422;2023-03-01T12:01:01;102882.41;;;5.00;52.93
71964;BME280;59834;52.124;5.422;2023-03-01T12:03:52;102870.34;;;4.97;52.82
71964;BME280;59834;52.124;5.422;2023-03-01T12:06:47;102885.84;;;5.03;52.42
71964;BME280;59834;52.124;5.422;2023-03-01T12:09:49;102877.16;;;5.09;52.89
71964;BME280;59834;52.124;5.422;2023-03-01T12:14:55;102885.84;;;5.03;51.07
71964;BME280;59834;52.124;5.422;2023-03-01T12:22:54;102882.25;;;5.19;51.33
71964;BME280;59834;52.124;5.422;2023-03-01T12:25:41;102875.31;;;5.22;50.67
71964;BME280;59834;52.124;5.422;2023-03-01T12:28:40;102876.97;;;5.29;51.48
71964;BME280;59834;52.124;5.422;2023-03-01T12:36:58;102866.56;;;5.32;50.29
71964;BME280;59834;52.124;5.422;2023-03-01T12:39:41;102853.59;;;5.32;48.91
71964;BME280;59834;52.124;5.422;2023-03-01T12:42:17;102857.84;;;5.40;49.45
71964;BME280;59834;52.124;5.422;2023-03-01T12:50:23;102852.50;;;5.53;50.67
71964;BME280;59834;52.124;5.422;2023-03-01T12:52:52;102833.41;;;5.58;50.77
71964;BME280;59834;52.124;5.422;2023-03-01T12:55:41;102839.53;;;5.54;50.93
71964;BME280;59834;52.124;5.422;2023-03-01T13:01:19;102822.91;;;5.71;49.81
71964;BME280;59834;52.124;5.422;2023-03-01T13:09:40;102806.34;;;5.78;49.16
71964;BME280;59834;52.124;5.422;2023-03-01T13:12:42;102795.09;;;5.76;49.47
71964;BME280;59834;52.124;5.422;2023-03-01T13:15:29;102795.09;;;5.76;50.82
71964;BME280;59834;52.124;5.422;2023-03-01T13:18:01;102801.09;;;5.84;49.05
71964;BME280;59834;52.124;5.422;2023-03-01T13:20:30;102798.44;;;5.85;49.62
71964;BME280;59834;52.124;5.422;2023-03-01T13:23:24;102795.91;;;5.81;49.72
71964;BME280;59834;52.124;5.422;2023-03-01T13:26:15;102795.06;;;5.80;49.02
71964;BME280;59834;52.124;5.422;2023-03-01T13:33:46;102773.38;;;5.80;49.92
71964;BME280;59834;52.124;5.422;2023-03-01T13:36:46;102774.97;;;5.95;50.19
71964;BME280;59834;52.124;5.422;2023-03-01T13:39:31;102768.03;;;5.92;50.68
71964;BME280;59834;52.124;5.422;2023-03-01T13:44:53;102760.25;;;5.95;49.73
71964;BME280;59834;52.124;5.422;2023-03-01T13:47:21;102761.75;;;6.10;49.57
71964;BME280;59834;52.124;5.422;2023-03-01T13:49:57;102753.97;;;6.11;49.12
71964;BME280;59834;52.124;5.422;2023-03-01T13:56:36;102747.81;;;6.17;49.79
71964;BME280;59834;52.124;5.422;2023-03-01T13:59:35;102747.09;;;6.07;48.99
71964;BME280;59834;52.124;5.422;2023-03-01T14:02:38;102733.16;;;6.10;49.14
71964;BME280;59834;52.124;5.422;2023-03-01T14:05:09;102726.09;;;6.21;48.59
71964;BME280;59834;52.124;5.422;2023-03-01T14:07:37;102725.19;;;6.24;48.72
71964;BME280;59834;52.124;5.422;2023-03-01T14:10:12;102723.53;;;6.17;48.54
71964;BME280;59834;52.124;5.422;2023-03-01T14:13:17;102721.09;;;6.07;49.33
71964;BME280;59834;52.124;5.422;2023-03-01T14:24:18;102703.53;;;6.22;48.32
71964;BME280;59834;52.124;5.422;2023-03-01T14:30:49;102693.91;;;6.27;48.10
71964;BME280;59834;52.124;5.422;2023-03-01T14:33:42;102687.88;;;6.25;48.88
71964;BME280;59834;52.124;5.422;2023-03-01T14:44:22;102674.94;;;6.22;47.46
71964;BME280;59834;52.124;5.422;2023-03-01T14:50:44;102666.25;;;6.23;47.87
71964;BME280;59834;52.124;5.422;2023-03-01T14:53:40;102670.56;;;6.24;48.74
71964;BME280;59834;52.124;5.422;2023-03-01T14:56:45;102668.88;;;6.20;49.16
71964;BME280;59834;52.124;5.422;2023-03-01T15:05:50;102664.38;;;6.31;48.47
71964;BME280;59834;52.124;5.422;2023-03-01T15:08:25;102661.84;;;6.28;47.38
71964;BME280;59834;52.124;5.422;2023-03-01T15:18:05;102661.00;;;6.26;48.53
71964;BME280;59834;52.124;5.422;2023-03-01T15:21:13;102658.47;;;6.21;48.06
71964;BME280;59834;52.124;5.422;2023-03-01T15:23:41;102654.19;;;6.19;47.02
71964;BME280;59834;52.124;5.422;2023-03-01T15:26:27;102650.63;;;6.24;47.85
71964;BME280;59834;52.124;5.422;2023-03-01T15:28:57;102653.25;;;6.23;46.94
71964;BME280;59834;52.124;5.422;2023-03-01T15:31:31;102648.03;;;6.24;47.14
71964;BME280;59834;52.124;5.422;2023-03-01T15:34:29;102642.84;;;6.23;47.91
71964;BME280;59834;52.124;5.422;2023-03-01T15:40:26;102648.13;;;6.17;48.63
71964;BME280;59834;52.124;5.422;2023-03-01T15:46:47;102638.66;;;6.14;48.95
71964;BME280;59834;52.124;5.422;2023-03-01T15:49:26;102637.81;;;6.12;49.60
71964;BME280;59834;52.124;5.422;2023-03-01T16:00:14;102643.19;;;6.01;52.39
71964;BME280;59834;52.124;5.422;2023-03-01T16:03:13;102649.31;;;5.97;51.95
71964;BME280;59834;52.124;5.422;2023-03-01T16:06:09;102651.97;;;5.93;51.23
71964;BME280;59834;52.124;5.422;2023-03-01T16:20:52;102628.84;;;5.73;52.07
71964;BME280;59834;52.124;5.422;2023-03-01T16:23:20;102625.47;;;5.67;51.69
71964;BME280;59834;52.124;5.422;2023-03-01T16:29:35;102631.66;;;5.60;53.59
71964;BME280;59834;52.124;5.422;2023-03-01T16:32:02;102633.44;;;5.55;53.59
71964;BME280;59834;52.124;5.422;2023-03-01T16:34:55;102628.31;;;5.49;53.89
71964;BME280;59834;52.124;5.422;2023-03-01T16:37:22;102631.00;;;5.44;53.88
71964;BME280;59834;52.124;5.422;2023-03-01T16:39:50;102626.69;;;5.42;53.81
71964;BME280;59834;52.124;5.422;2023-03-01T16:42:20;102637.97;;;5.39;53.27
71964;BME280;59834;52.124;5.422;2023-03-01T16:44:47;102628.53;;;5.34;54.01
71964;BME280;59834;52.124;5.422;2023-03-01T16:47:14;102644.19;;;5.28;53.64
71964;BME280;59834;52.124;5.422;2023-03-01T16:53:46;102642.63;;;5.13;54.36
71964;BME280;59834;52.124;5.422;2023-03-01T16:56:13;102635.69;;;5.15;54.63
71964;BME280;59834;52.124;5.422;2023-03-01T16:58:40;102639.22;;;5.06;54.62
71964;BME280;59834;52.124;5.422;2023-03-01T17:01:15;102645.38;;;4.99;55.36
71964;BME280;59834;52.124;5.422;2023-03-01T17:03:43;102648.91;;;4.92;55.09
71964;BME280;59834;52.124;5.422;2023-03-01T17:06:13;102652.44;;;4.88;55.80
71964;BME280;59834;52.124;5.422;2023-03-01T17:08:41;102641.22;;;4.83;54.87
71964;BME280;59834;52.124;5.422;2023-03-01T17:11:16;102648.22;;;4.78;55.33
71964;BME280;59834;52.124;5.422;2023-03-01T17:13:44;102643.09;;;4.73;56.08
71964;BME280;59834;52.124;5.422;2023-03-01T17:16:14;102638.78;;;4.69;56.06
71964;BME280;59834;52.124;5.422;2023-03-01T17:18:41;102641.44;;;4.64;55.78